Latest Weather Observations for Swan Hill

IDV60801

Issued at 9:42 am EDT Thursday 23 January 2020 (issued every 10 minutes, with the page automatically refreshed every 10 minutes)

About weather observations | Map of weather stations | Latest weather observations for VIC | Other Formats
Station Details ID: 077094 Name: SWAN HILL AERODROME Lat: -35.38 Lon: 143.54 Height: 71.0 m
Data from the previous 72 hours. | See also: Recent months at Swan Hill
Date/Time
EDT
Temp
°C
App
Temp
°C
Dew
Point
°C
Rel
Hum
%
Delta-T
°C
Wind Press
QNH
hPa
Press
MSL
hPa
Rain since
9am
mm
Dir  Spd
km/h
Gust
km/h
Spd
kts
Gust
kts
23/09:30am 18.2 14.4 13.5 74 2.7 NNW 26 35 14 19 1000.4 1000.1 0.0
23/09:00am 16.3 14.1 14.3 88 1.1 N 19 26 10 14 1000.2 999.9 2.6
23/08:30am 15.0 12.8 13.4 90 0.9 N 17 20 9 11 1000.0 999.7 2.6
23/08:00am 14.7 12.9 13.2 91 0.8 N 15 19 8 10 999.3 999.0 2.6
23/07:30am 14.5 13.1 13.4 93 0.6 N 13 17 7 9 998.9 998.6 2.6
23/07:00am 14.1 12.9 12.8 92 0.7 NNE 11 17 6 9 998.5 998.2 2.6
23/06:30am 14.2 12.7 13.1 93 0.6 N 13 19 7 10 998.7 998.4 2.6
23/06:00am 14.4 13.6 12.8 90 0.9 N 9 11 5 6 998.0 997.7 2.6
23/05:30am 14.7 15.5 12.4 86 1.3 CALM 0 0 0 0 998.0 997.7 2.6
23/05:00am 14.7 14.9 12.0 84 1.5 SW 2 9 1 5 998.5 998.2 2.2
23/04:30am 14.6 15.3 12.3 86 1.3 CALM 0 6 0 3 998.0 997.7 2.2
23/04:00am 14.2 13.7 12.1 87 1.1 SW 6 11 3 6 998.3 998.0 2.0
23/03:30am 14.3 13.7 12.2 87 1.1 SW 7 9 4 5 999.2 998.9 2.0
23/03:00am 14.5 13.7 11.7 83 1.5 SW 7 17 4 9 999.7 999.4 1.6
23/02:30am 15.4 14.0 10.8 74 2.4 SSW 9 15 5 8 999.1 998.8 0.0
23/02:00am 15.8 12.7 10.3 70 2.9 SW 17 24 9 13 998.5 998.2 0.0
23/01:30am 16.4 13.1 9.6 64 3.6 SSW 17 24 9 13 999.1 998.8 0.0
23/01:00am 17.3 13.5 9.2 59 4.3 SSW 19 28 10 15 999.8 999.5 0.0
23/12:30am 17.9 15.1 8.7 55 4.8 SW 13 20 7 11 999.4 999.1 0.0
23/12:00am 17.8 14.6 8.6 55 4.8 S 15 22 8 12 999.2 998.9 0.0
 
Date/Time
EDT
Temp
°C
App
Temp
°C
Dew
Point
°C
Rel
Hum
%
Delta-T
°C
Wind Press
QNH
hPa
Press
MSL
hPa
Rain since
9am
mm
Dir  Spd
km/h
Gust
km/h
Spd
kts
Gust
kts
22/11:30pm 18.0 14.7 9.6 58 4.4 S 17 24 9 13 998.9 998.6 0.0
22/11:00pm 19.0 14.9 8.6 51 5.5 SSW 20 32 11 17 999.7 999.4 0.0
22/10:30pm 19.8 15.4 9.1 50 5.7 SSW 22 33 12 18 999.3 999.0 0.0
22/10:00pm 21.0 17.5 10.8 52 5.6 SSW 20 30 11 16 999.0 998.7 0.0
22/09:30pm 23.2 18.8 10.3 44 7.1 SW 24 35 13 19 998.8 998.5 0.0
22/09:00pm 24.1 18.4 9.7 40 7.9 SW 30 43 16 23 998.4 998.1 0.0
22/08:34pm 25.3 18.9 9.2 36 8.8 WSW 33 44 18 24 997.4 997.1 0.0
22/08:30pm 25.6 18.4 9.0 35 9.1 WSW 37 48 20 26 997.3 997.0 0.0
22/08:21pm 28.2 21.1 9.5 31 10.4 W 37 52 20 28 997.0 996.6 0.0
22/08:11pm 30.6 21.1 8.3 25 12.3 NW 48 67 26 36 996.4 996.0 0.0
22/08:03pm 31.8 20.6 7.5 22 13.3 NW 56 78 30 42 995.8 995.4 0.0
22/08:00pm 31.6 20.3 8.0 23 13.1 NW 57 80 31 43 995.7 995.3 0.0
22/07:37pm 33.4 22.6 5.9 18 14.8 NNW 52 78 28 42 995.1 994.7 0.0
22/07:36pm 33.6 23.0 5.2 17 15.2 NNW 50 78 27 42 994.6 994.2 0.0
22/07:30pm 33.6 25.3 4.3 16 15.4 N 37 57 20 31 994.8 994.4 0.0
22/07:29pm 33.7 25.8 4.4 16 15.5 N 35 56 19 30 994.6 994.2 0.0
22/07:00pm 33.4 26.4 4.2 16 15.4 N 30 41 16 22 994.9 994.5 0.0
22/06:30pm 33.2 25.8 4.9 17 15.0 N 33 43 18 23 995.2 994.8 0.0
22/06:01pm 33.0 26.7 5.5 18 14.7 N 28 46 15 25 995.5 995.1 0.0
22/06:00pm 32.9 26.9 5.5 18 14.8 N 26 46 14 25 995.6 995.2 0.0
22/05:30pm 31.5 27.1 6.5 21 13.5 N 19 22 10 12 996.6 996.2 0.0
22/05:00pm 31.1 25.6 7.5 23 13.0 NNW 26 37 14 20 997.3 997.0 0.0
22/04:30pm 30.6 21.8 7.1 23 12.7 NNW 43 57 23 31 998.3 998.0 0.0
22/04:26pm 30.3 22.1 8.1 25 12.2 NNW 41 57 22 31 998.7 998.4 0.0
22/04:14pm 31.9 22.7 6.2 20 13.8 NNW 44 57 24 31 998.9 998.6 0.0
22/04:12pm 32.3 23.0 5.7 19 14.2 NNW 44 57 24 31 999.0 998.7 0.0
22/04:06pm 32.4 21.8 5.1 18 14.5 NW 50 76 27 41 999.2 998.9 0.0
22/04:02pm 32.4 20.5 4.2 17 14.7 WNW 56 76 30 41 999.2 998.9 0.0
22/04:00pm 32.5 20.4 4.3 17 14.8 WNW 57 76 31 41 999.0 998.7 0.0
22/03:58pm 32.3 20.4 4.2 17 14.7 NW 56 76 30 41 998.8 998.5 0.0
22/03:47pm 32.7 22.6 3.6 16 15.1 NNW 46 82 25 44 999.1 998.8 0.0
22/03:46pm 32.6 23.0 3.5 16 15.0 NNW 43 82 23 44 999.2 998.9 0.0
22/03:45pm 32.8 23.3 3.7 16 15.1 NNW 43 82 23 44 998.5 998.2 0.0
22/03:43pm 33.7 25.3 1.5 13 16.2 N 35 67 19 36 998.9 998.6 0.0
22/03:30pm 33.5 26.0 1.3 13 16.1 N 30 39 16 21 998.3 998.0 0.0
22/03:22pm 33.2 25.1 1.1 13 16.0 N 33 52 18 28 998.2 997.9 0.0
22/03:00pm 33.4 25.9 1.3 13 16.2 N 30 39 16 21 998.3 998.0 0.0
22/02:30pm 33.1 25.2 1.0 13 16.0 N 32 43 17 23 999.4 999.1 0.0
22/02:00pm 32.7 25.1 2.7 15 15.4 NNW 32 54 17 29 1000.4 1000.1 0.0
22/01:53pm 33.0 24.7 2.0 14 15.7 NNW 35 54 19 29 1000.5 1000.2 0.0
22/01:30pm 32.7 25.1 2.7 15 15.3 NNW 32 39 17 21 1001.4 1001.1 0.0
22/01:00pm 31.8 23.8 3.8 17 14.5 NNW 35 46 19 25 1001.9 1001.6 0.0
22/12:30pm 32.6 24.5 3.5 16 15.0 NNW 35 48 19 26 1002.1 1001.8 0.0
22/12:00pm 32.5 24.1 3.5 16 15.0 NNW 37 48 20 26 1002.5 1002.2 0.0
22/11:30am 31.9 22.8 2.1 15 15.0 N 39 52 21 28 1002.2 1001.9 0.0
22/11:00am 31.0 22.7 6.1 21 13.4 N 39 52 21 28 1003.2 1002.9 0.0
22/10:30am 29.6 22.0 7.5 25 12.0 N 37 48 20 26 1003.7 1003.3 0.0
22/10:04am 28.9 22.1 7.5 26 11.6 N 33 52 18 28 1003.6 1003.2 0.0
22/10:00am 28.7 21.9 7.9 27 11.4 N 33 44 18 24 1003.8 1003.4 0.0
22/09:30am 27.5 21.3 7.9 29 10.6 N 30 41 16 22 1004.1 1003.7 0.0
22/09:00am 25.6 20.5 7.7 32 9.6 NNE 24 33 13 18 1003.9 1003.5 0.2
22/08:30am 23.0 17.5 7.5 37 8.1 NNE 26 35 14 19 1003.6 1003.2 0.2
22/08:00am 21.7 16.2 7.5 40 7.4 NNE 26 33 14 18 1003.7 1003.3 0.2
22/07:30am 20.5 15.8 7.8 44 6.6 NNE 22 28 12 15 1004.6 1004.2 0.2
22/07:00am 18.4 14.4 8.4 52 5.2 NE 19 24 10 13 1004.7 1004.3 0.2
22/06:30am 17.3 13.7 8.4 56 4.6 NE 17 19 9 10 1004.8 1004.4 0.2
22/06:00am 17.2 13.7 8.6 57 4.4 NE 17 19 9 10 1004.8 1004.4 0.2
22/05:30am 17.5 14.3 8.4 55 4.7 NE 15 19 8 10 1004.9 1004.5 0.2
22/05:00am 18.1 14.4 7.8 51 5.3 NE 17 22 9 12 1005.0 1004.6 0.2
22/04:30am 19.3 15.5 7.7 47 6.0 NE 17 19 9 10 1005.1 1004.7 0.2
22/04:00am 19.5 15.3 7.6 46 6.1 NE 19 22 10 12 1005.1 1004.7 0.2
22/03:30am 19.1 15.4 7.8 48 5.8 NE 17 22 9 12 1005.3 1004.9 0.2
22/03:00am 19.6 15.8 7.7 46 6.1 NE 17 20 9 11 1005.4 1005.0 0.2
22/02:30am 19.4 15.7 8.1 48 5.8 NE 17 19 9 10 1005.8 1005.4 0.2
22/02:00am 19.6 16.0 8.3 48 5.9 NE 17 20 9 11 1006.0 1005.6 0.2
22/01:30am 19.4 16.2 8.4 49 5.7 NE 15 17 8 9 1006.4 1006.0 0.2
22/01:00am 19.6 16.1 8.6 49 5.8 NE 17 19 9 10 1006.5 1006.1 0.2
22/12:30am 19.6 16.5 8.9 50 5.6 NE 15 17 8 9 1006.8 1006.4 0.2
22/12:00am 19.1 16.6 9.6 54 5.1 NE 13 13 7 7 1006.9 1006.5 0.2
 
Date/Time
EDT
Temp
°C
App
Temp
°C
Dew
Point
°C
Rel
Hum
%
Delta-T
°C
Wind Press
QNH
hPa
Press
MSL
hPa
Rain since
9am
mm
Dir  Spd
km/h
Gust
km/h
Spd
kts
Gust
kts
21/11:30pm 19.8 16.8 9.4 51 5.5 NE 15 17 8 9 1006.9 1006.5 0.2
21/11:00pm 20.1 17.6 9.7 51 5.6 NNW 13 15 7 8 1007.1 1006.7 0.2
21/10:30pm 20.4 18.6 9.3 49 5.9 NNW 9 9 5 5 1007.4 1007.0 0.2
21/10:00pm 21.1 19.7 9.4 47 6.3 NNW 7 7 4 4 1007.4 1007.0 0.2
21/09:30pm 22.0 20.6 9.5 45 6.7 NNW 7 9 4 5 1007.2 1006.8 0.2
21/09:00pm 23.4 21.7 8.3 38 8.1 NNW 7 7 4 4 1007.1 1006.7 0.2
21/08:30pm 25.2 23.6 7.8 33 9.3 NNW 6 9 3 5 1007.0 1006.6 0.2
21/08:00pm 26.6 23.8 7.1 29 10.4 NNW 11 15 6 8 1007.0 1006.6 0.2
21/07:30pm 26.7 23.5 6.7 28 10.5 N 13 20 7 11 1006.9 1006.5 0.2
21/07:00pm 27.6 23.8 5.8 25 11.4 NNW 15 20 8 11 1006.7 1006.3 0.2
21/06:30pm 27.0 23.6 5.9 26 11.0 NNW 13 22 7 12 1006.7 1006.3 0.2
21/06:00pm 27.1 22.6 6.0 26 11.0 W 19 26 10 14 1006.9 1006.5 0.2
21/05:30pm 27.4 23.4 5.1 24 11.5 WNW 15 26 8 14 1007.1 1006.7 0.2
21/05:00pm 26.9 22.6 5.2 25 11.2 W 17 26 9 14 1007.5 1007.1 0.2
21/04:30pm 27.3 23.1 5.6 25 11.3 NW 17 26 9 14 1007.7 1007.3 0.2
21/04:00pm 27.4 22.7 6.2 26 11.1 NW 20 35 11 19 1008.2 1007.8 0.2
21/03:30pm 26.4 21.7 5.9 27 10.6 NW 20 33 11 18 1008.6 1008.2 0.2
21/03:00pm 25.6 21.1 6.8 30 9.9 W 20 30 11 16 1008.9 1008.5 0.2
21/02:30pm 24.5 20.9 6.7 32 9.3 NW 15 24 8 13 1009.2 1008.8 0.2
21/02:00pm 24.5 20.4 6.3 31 9.4 W 17 28 9 15 1009.7 1009.4 0.2
21/01:30pm 23.4 20.4 7.9 37 8.2 WNW 13 28 7 15 1010.1 1009.8 0.2
21/01:00pm 22.9 20.5 8.6 40 7.6 WNW 11 22 6 12 1010.6 1010.3 0.2
21/12:30pm 22.3 19.8 9.8 45 6.8 NW 13 20 7 11 1010.9 1010.6 0.2
21/12:00pm 21.2 19.5 9.8 48 6.2 W 9 17 5 9 1011.1 1010.8 0.2
21/11:30am 20.1 19.1 10.2 53 5.4 SSW 6 17 3 9 1011.2 1010.9 0.0
21/11:00am 19.0 17.3 10.0 56 4.8 SW 9 15 5 8 1011.5 1011.2 0.0
21/10:30am 18.7 17.6 12.0 65 3.7 SW 9 17 5 9 1011.8 1011.5 0.0
21/10:00am 17.0 15.5 10.4 65 3.5 SSW 9 17 5 9 1011.8 1011.5 0.0
21/09:30am 16.9 15.2 11.2 69 3.1 S 11 15 6 8 1011.8 1011.5 0.0
21/09:00am 15.8 14.2 10.3 70 2.9 S 9 15 5 8 1011.8 1011.5 4.4
21/08:30am 14.8 12.8 10.0 73 2.5 SSW 11 17 6 9 1011.5 1011.2 4.4
21/08:00am 13.6 11.3 10.6 82 1.6 SW 13 19 7 10 1011.2 1010.9 4.4
21/07:30am 12.7 10.4 10.4 86 1.2 SW 13 19 7 10 1010.9 1010.6 4.4
21/07:00am 12.0 10.0 10.1 88 1.0 SW 11 15 6 8 1010.6 1010.3 4.4
21/06:30am 11.9 9.4 9.8 87 1.1 SW 13 15 7 8 1010.0 1009.7 4.4
21/06:00am 12.1 10.4 9.8 86 1.2 SSW 9 15 5 8 1009.4 1009.0 4.4
21/05:30am 12.3 10.2 9.9 85 1.2 SSW 11 15 6 8 1009.0 1008.6 4.4
21/05:00am 12.7 10.7 10.2 85 1.3 SSW 11 17 6 9 1008.7 1008.3 4.4
21/04:30am 13.0 11.1 10.5 85 1.3 SSW 11 17 6 9 1008.4 1008.0 4.4
21/04:00am 13.4 11.6 10.8 84 1.4 SW 11 13 6 7 1008.3 1007.9 4.4
21/03:30am 13.8 11.7 11.0 83 1.5 SSW 13 19 7 10 1008.1 1007.7 4.4
21/03:00am 14.2 12.2 11.4 83 1.5 S 13 20 7 11 1008.0 1007.6 4.4
21/02:30am 14.5 12.6 11.8 84 1.5 SSW 13 20 7 11 1008.0 1007.6 4.4
21/02:00am 14.8 13.0 12.1 84 1.5 SSW 13 20 7 11 1008.3 1007.9 4.4
21/01:30am 15.2 13.0 12.2 82 1.6 SSW 15 20 8 11 1008.4 1008.0 4.4
21/01:00am 15.6 13.2 12.7 83 1.6 SSW 17 24 9 13 1008.4 1008.0 4.4
21/12:30am 16.2 13.6 13.3 83 1.6 SSW 19 28 10 15 1008.2 1007.8 4.4
21/12:00am 16.7 14.0 13.6 82 1.8 SSW 20 30 11 16 1008.1 1007.7 4.4
 
Date/Time
EDT
Temp
°C
App
Temp
°C
Dew
Point
°C
Rel
Hum
%
Delta-T
°C
Wind Press
QNH
hPa
Press
MSL
hPa
Rain since
9am
mm
Dir  Spd
km/h
Gust
km/h
Spd
kts
Gust
kts
20/11:30pm 16.8 15.3 14.1 84 1.5 SSW 15 20 8 11 1007.8 1007.4 4.4
20/11:00pm 17.7 14.8 14.0 79 2.1 SSW 22 35 12 19 1007.7 1007.3 4.4
20/10:30pm 18.4 16.0 14.5 78 2.3 SSW 20 35 11 19 1007.3 1006.9 4.4
20/10:00pm 18.9 18.7 16.7 87 1.3 SW 13 17 7 9 1007.0 1006.6 4.4
20/09:30pm 19.3 18.3 16.7 85 1.6 SW 17 22 9 12 1006.6 1006.2 4.4
20/09:00pm 19.0 17.6 17.1 89 1.2 WSW 20 24 11 13 1006.2 1005.8 4.4
20/08:30pm 18.1 16.7 17.0 93 0.7 W 20 26 11 14 1006.0 1005.6 4.4
20/08:00pm 17.8 15.9 16.7 93 0.7 W 22 30 12 16 1005.6 1005.2 4.4
20/07:30pm 17.9 15.8 16.1 89 1.1 W 22 28 12 15 1005.4 1005.0 3.8
20/07:00pm 18.5 16.7 17.0 91 0.9 W 22 28 12 15 1005.1 1004.7 3.4
20/06:30pm 19.1 17.8 16.7 86 1.4 WNW 19 26 10 14 1004.7 1004.3 3.4
20/06:00pm 19.6 20.0 17.2 86 1.5 WSW 11 15 6 8 1004.3 1003.9 2.8
20/05:30pm 19.6 18.8 16.1 80 2.1 WSW 15 20 8 11 1004.4 1004.0 0.8
20/05:00pm 22.5 20.0 13.6 57 5.2 WSW 19 28 10 15 1003.9 1003.5 0.2
20/04:30pm 22.9 20.8 12.5 52 5.9 SSW 15 24 8 13 1003.8 1003.4 0.2
20/04:00pm 22.7 20.9 14.5 60 4.9 SW 17 24 9 13 1003.8 1003.4 0.2
20/03:30pm 23.3 20.5 13.2 53 5.9 WSW 20 30 11 16 1003.5 1003.1 0.2
20/03:00pm 22.9 21.1 14.5 59 5.0 WSW 17 22 9 12 1003.1 1002.8 0.2
20/02:30pm 23.1 20.1 14.9 60 4.9 SW 24 35 13 19 1003.5 1003.1 0.2
20/02:00pm 25.2 23.3 11.7 43 7.7 S 13 20 7 11 1003.0 1002.7 0.2
20/01:30pm 26.3 24.6 12.4 42 8.1 SE 13 24 7 13 1003.1 1002.8 0.2
20/01:00pm 25.8 24.4 12.3 43 7.8 S 11 19 6 10 1003.2 1002.9 0.2
20/12:30pm 24.7 22.7 11.6 44 7.4 SSW 13 19 7 10 1003.2 1002.9 0.2
20/12:00pm 24.9 22.8 12.5 46 7.2 SSE 15 24 8 13 1003.6 1003.2 0.2
20/11:30am 24.0 22.4 12.9 50 6.4 S 13 20 7 11 1003.8 1003.4 0.2
20/11:00am 23.3 21.1 12.0 49 6.4 SSE 15 24 8 13 1003.8 1003.4 0.2
20/10:30am 23.0 21.1 12.9 53 5.8 SSE 15 24 8 13 1003.7 1003.3 0.0
20/10:00am 22.6 20.2 12.5 53 5.8 SSE 17 26 9 14 1003.7 1003.3 0.0

Other formats

Comma delimited format used in spreadsheet applications
http://www.bom.gov.au/fwo/IDV60801/IDV60801.94843.axf

JavaScript Object Notation format (JSON) in row-major order
http://www.bom.gov.au/fwo/IDV60801/IDV60801.94843.json

Data quality

Most of these data are generated automatically and are frequently updated. Quality checks on data are not normally performed. It is possible for incorrect values to appear. Refer to information at About Latest Weather Observations and please check the disclaimer before using these data.